KBJI/BJI METAR and TAF weather

Enter ICAO airport designator
Station Type Date Time Source
KBJI METAR 2022/01/29 12:55 UTC NOAA

KBJI 291255Z AUTO 15006KT 10SM BKN120 M11/M13 A2982 RMK AO2 T11131132


Station Type Date Time Source
KBJI Decoded METAR 2022/01/29 12:55 UTC NOAA

Bemidji, MN, United States (KBJI) 47-30N 094-56W 420M
Jan 29, 2022 - 07:55 AM EST / 2022.01.29 1255 UTC
Wind: from the SSE (150 degrees) at 7 MPH (6 KT):0
Visibility: 10 mile(s):0
Sky conditions: mostly cloudy
Temperature: 11.7 F (-11.3 C)
Windchill: 1 F (-17 C):1
Dew Point: 8.2 F (-13.2 C)
Relative Humidity: 85%
Pressure (altimeter): 29.82 in. Hg (1009 hPa)
ob: KBJI 291255Z AUTO 15006KT 10SM BKN120 M11/M13 A2982 RMK AO2 T11131132
cycle: 13

Station Type Date Time Source
KBJI TAF 2022/01/29 12:33 UTC NOAA

TAF KBJI 291130Z 2912/3012 14004KT P6SM SKC
FM291700 28007KT P6SM BKN040
FM292100 31009KT P6SM BKN025
FM300300 33007KT P6SM BKN020
FM300900 VRB03KT P6SM SCT017

Example: see airport list